createdAt,value
2019-04-14T00:00:12.246Z,653.06
2019-04-14T00:05:14.759Z,652.96
2019-04-14T00:10:18.120Z,652.96
2019-04-14T00:15:29.113Z,652.96
2019-04-14T00:20:22.818Z,652.86
2019-04-14T00:25:24.653Z,652.76
2019-04-14T00:30:27.286Z,652.66
2019-04-14T00:35:29.882Z,652.56
2019-04-14T00:40:32.984Z,652.66
2019-04-14T00:45:42.498Z,652.66
2019-04-14T00:50:36.766Z,652.56
2019-04-14T00:55:40.078Z,652.56
2019-04-14T01:00:42.688Z,652.46
2019-04-14T01:05:44.152Z,652.46
2019-04-14T01:10:47.584Z,652.36
2019-04-14T01:15:58.353Z,652.36
2019-04-14T01:20:51.601Z,652.36
2019-04-14T01:25:54.238Z,652.26
2019-04-14T01:30:56.655Z,652.26
2019-04-14T01:35:59.597Z,652.26
2019-04-14T01:41:02.108Z,652.16
2019-04-14T01:46:11.341Z,652.16
2019-04-14T01:51:07.016Z,652.06
2019-04-14T01:56:08.747Z,652.06
2019-04-14T02:01:11.229Z,652.06
2019-04-14T02:06:13.677Z,652.06
2019-04-14T02:11:16.089Z,651.96
2019-04-14T02:16:28.656Z,651.96
2019-04-14T02:21:21.573Z,651.86
2019-04-14T02:26:24.046Z,651.86
2019-04-14T02:31:43.087Z,651.86
2019-04-14T02:36:56.091Z,651.96
2019-04-14T02:42:06.573Z,652.16
2019-04-14T02:46:52.870Z,652.36
2019-04-14T02:52:03.886Z,652.56
2019-04-14T02:57:09.489Z,652.76
2019-04-14T03:07:27.938Z,653.06
2019-04-14T03:12:08.998Z,653.26
2019-04-14T03:17:20.900Z,653.46
2019-04-14T03:27:22.105Z,653.86
2019-04-14T03:32:35.553Z,654.06
2019-04-14T03:42:28.442Z,654.26
2019-04-14T03:47:24.719Z,654.36
2019-04-14T04:02:10.139Z,654.66
2019-04-14T04:07:12.590Z,654.76
2019-04-14T04:12:16.021Z,654.76
2019-04-14T04:17:17.506Z,654.86
2019-04-14T04:22:19.946Z,654.96
2019-04-14T04:27:22.437Z,654.96
2019-04-14T04:32:25.383Z,654.96
2019-04-14T04:37:27.900Z,655.06
2019-04-14T04:42:30.801Z,655.06
2019-04-14T04:47:33.690Z,655.16
2019-04-14T04:52:34.684Z,655.26
2019-04-14T04:57:37.407Z,0
2019-04-14T05:02:39.733Z,0.1
2019-04-14T05:07:42.628Z,0.2
2019-04-14T05:12:45.629Z,0.3
2019-04-14T05:17:47.483Z,0.4
2019-04-14T05:22:50.677Z,0.4
2019-04-14T05:27:51.884Z,0.5
2019-04-14T05:32:54.425Z,0.5
2019-04-14T05:37:57.284Z,0.5
2019-04-14T05:43:00.224Z,0.5
2019-04-14T05:48:03.193Z,0.5
2019-04-14T05:53:04.375Z,0.5
2019-04-14T05:58:07.795Z,0.5
2019-04-14T06:03:10.174Z,0.4
2019-04-14T06:08:11.607Z,0.5
2019-04-14T06:13:13.997Z,0.5
2019-04-14T06:18:16.895Z,0.6
2019-04-14T06:23:18.945Z,0.7
2019-04-14T06:28:21.442Z,0.8
2019-04-14T06:33:23.843Z,0.9
2019-04-14T06:38:26.371Z,1
2019-04-14T06:43:28.790Z,1.2
2019-04-14T06:48:31.673Z,1.4
2019-04-14T06:53:33.684Z,1.5
2019-04-14T06:58:36.136Z,1.6
2019-04-14T07:03:38.687Z,1.7
2019-04-14T07:08:41.173Z,1.8
2019-04-14T07:13:47.786Z,1.9
2019-04-14T07:18:46.500Z,2.1
2019-04-14T07:23:48.498Z,2.2
2019-04-14T07:28:56.391Z,2.4
2019-04-14T07:33:53.482Z,2.4
2019-04-14T07:38:55.874Z,2.5
2019-04-14T07:43:58.434Z,2.6
2019-04-14T07:49:01.092Z,2.8
2019-04-14T07:54:03.235Z,3.1
2019-04-14T07:59:05.680Z,3.4
2019-04-14T08:04:08.201Z,3.6
2019-04-14T08:09:10.658Z,3.7
2019-04-14T08:14:13.084Z,3.8
2019-04-14T08:19:16.027Z,3.8
2019-04-14T08:24:18.019Z,3.9
2019-04-14T08:29:20.472Z,4
2019-04-14T08:34:22.962Z,4
2019-04-14T08:39:25.486Z,4.1
2019-04-14T08:44:27.871Z,4.3
2019-04-14T08:49:30.439Z,4.3
2019-04-14T08:54:32.794Z,4.4
2019-04-14T08:59:35.327Z,4.5
2019-04-14T09:04:38.181Z,4.6
2019-04-14T09:09:40.202Z,4.7
2019-04-14T09:14:42.702Z,4.7
2019-04-14T09:19:45.212Z,4.7
2019-04-14T09:24:47.591Z,4.8
2019-04-14T09:29:52.171Z,4.8
2019-04-14T09:34:52.822Z,5
2019-04-14T09:39:55.055Z,5
2019-04-14T09:44:57.404Z,5
2019-04-14T09:49:59.970Z,5
2019-04-14T09:55:02.347Z,5
2019-04-14T10:00:04.873Z,5
2019-04-14T10:05:07.613Z,5.1
2019-04-14T10:10:09.702Z,5.3
2019-04-14T10:15:12.208Z,5.4
2019-04-14T10:20:14.687Z,5.4
2019-04-14T10:30:19.513Z,5.3
2019-04-14T10:35:22.468Z,5.4
2019-04-14T10:40:24.455Z,5.5
2019-04-14T10:45:26.890Z,5.6
2019-04-14T10:50:30.904Z,6
2019-04-14T10:55:31.793Z,6.3
2019-04-14T11:00:34.294Z,6.6
2019-04-14T11:05:36.721Z,6.9
2019-04-14T11:10:39.223Z,7.1
2019-04-14T11:15:41.692Z,7.3
2019-04-14T11:20:44.168Z,7.4
2019-04-14T11:25:46.578Z,7.6
2019-04-14T11:30:49.022Z,7.5
2019-04-14T11:35:51.556Z,7.3
2019-04-14T11:40:53.945Z,7
2019-04-14T11:45:56.466Z,6.8
2019-04-14T11:50:58.990Z,6.7
2019-04-14T11:56:01.296Z,6.8
2019-04-14T12:01:03.774Z,6.8
2019-04-14T12:06:06.208Z,6.8
2019-04-14T12:11:08.664Z,7
2019-04-14T12:16:11.156Z,7.1
2019-04-14T12:21:13.594Z,7.1
2019-04-14T12:26:16.040Z,7.2
2019-04-14T12:31:19.525Z,7.3
2019-04-14T12:36:21.001Z,7.3
2019-04-14T12:41:24.154Z,7.4
2019-04-14T12:46:25.893Z,7.5
2019-04-14T12:51:28.452Z,7.5
2019-04-14T12:56:30.875Z,7.4
2019-04-14T13:01:33.253Z,7.1
2019-04-14T13:06:35.827Z,6.8
2019-04-14T13:11:38.305Z,6.4
2019-04-14T13:16:40.681Z,6.2
2019-04-14T13:21:43.440Z,6.1
2019-04-14T13:26:45.619Z,6
2019-04-14T13:31:48.078Z,6
2019-04-14T13:36:50.647Z,5.9
2019-04-14T13:41:52.934Z,5.9
2019-04-14T13:46:55.368Z,5.8
2019-04-14T13:51:58.376Z,5.7
2019-04-14T13:57:00.286Z,5.7
2019-04-14T14:02:02.771Z,5.7
2019-04-14T14:07:05.299Z,5.7
2019-04-14T14:12:07.677Z,5.6
2019-04-14T14:17:10.132Z,5.6
2019-04-14T14:22:14.091Z,5.6
2019-04-14T14:27:15.063Z,5.6
2019-04-14T14:32:17.487Z,5.6
2019-04-14T14:37:19.944Z,5.6
2019-04-14T14:42:22.388Z,5.6
2019-04-14T14:47:24.861Z,5.6
2019-04-14T14:52:27.411Z,5.7
2019-04-14T14:57:29.792Z,5.8
2019-04-14T15:02:32.243Z,5.9
2019-04-14T15:07:34.718Z,6
2019-04-14T15:12:37.157Z,6.1
2019-04-14T15:17:39.611Z,6.1
2019-04-14T15:22:42.491Z,6.2
2019-04-14T15:27:44.515Z,6.1
2019-04-14T15:32:47.081Z,6.1
2019-04-14T15:37:49.475Z,6
2019-04-14T15:42:51.872Z,6
2019-04-14T15:47:54.392Z,5.9
2019-04-14T15:52:56.879Z,5.7
2019-04-14T15:57:59.248Z,5.6
2019-04-14T16:03:01.714Z,5.5
2019-04-14T16:08:04.210Z,5.5
2019-04-14T16:13:06.940Z,5.5
2019-04-14T16:18:09.087Z,5.5
2019-04-14T16:33:16.530Z,5.5
2019-04-14T16:38:18.985Z,5.5
2019-04-14T16:43:21.422Z,5.4
2019-04-14T16:48:23.825Z,5.4
2019-04-14T16:53:26.307Z,5.4
2019-04-14T16:58:29.186Z,5.4
2019-04-14T17:03:31.214Z,5.4
2019-04-14T17:08:33.701Z,5.3
2019-04-14T17:13:36.130Z,5.3
2019-04-14T17:18:38.650Z,5.3
2019-04-14T17:23:41.038Z,5.3
2019-04-14T17:28:43.836Z,5.2
2019-04-14T17:33:45.938Z,5.2
2019-04-14T17:38:48.442Z,5.2
2019-04-14T17:43:50.878Z,5.2
2019-04-14T17:48:53.351Z,5.1
2019-04-14T17:53:55.815Z,5
2019-04-14T17:58:58.410Z,5
2019-04-14T18:04:00.742Z,5
2019-04-14T18:09:03.281Z,4.9
2019-04-14T18:14:05.660Z,4.9
2019-04-14T18:19:08.104Z,4.8
2019-04-14T18:24:10.564Z,4.8
2019-04-14T18:29:13.353Z,4.7
2019-04-14T18:34:15.500Z,4.7
2019-04-14T18:39:18.024Z,4.8
2019-04-14T18:44:20.456Z,4.7
2019-04-14T18:49:22.902Z,4.8
2019-04-14T18:54:25.346Z,4.8
2019-04-14T18:59:28.185Z,4.8
2019-04-14T19:04:30.339Z,4.7
2019-04-14T19:09:32.821Z,4.6
2019-04-14T19:14:35.211Z,4.6
2019-04-14T19:19:37.651Z,4.6
2019-04-14T19:24:40.193Z,4.6
2019-04-14T19:29:42.669Z,4.6
2019-04-14T19:34:45.055Z,4.7
2019-04-14T19:39:47.502Z,4.7
2019-04-14T19:44:49.963Z,4.7
2019-04-14T19:49:52.407Z,4.7
2019-04-14T19:54:54.945Z,4.8
2019-04-14T20:04:59.904Z,4.8
2019-04-14T20:10:02.252Z,4.8
2019-04-14T20:15:04.727Z,4.9
2019-04-14T20:20:07.194Z,4.9
2019-04-14T20:25:09.650Z,4.8
2019-04-14T20:35:14.932Z,4.9
2019-04-14T20:40:17.055Z,4.9
2019-04-14T20:45:19.490Z,4.9
2019-04-14T20:50:22.246Z,4.9
2019-04-14T20:55:24.415Z,4.9
2019-04-14T21:00:27.025Z,4.9
2019-04-14T21:10:31.819Z,4.9
2019-04-14T21:15:34.252Z,4.9
2019-04-14T21:20:36.731Z,4.9
2019-04-14T21:25:39.162Z,4.9
2019-04-14T21:30:41.636Z,4.9
2019-04-14T21:35:44.109Z,4.9
2019-04-14T21:40:46.610Z,4.9
2019-04-14T21:45:49.053Z,4.9
2019-04-14T21:50:51.528Z,4.9
2019-04-14T21:55:53.991Z,4.9
2019-04-14T22:00:56.415Z,4.8
2019-04-14T22:05:58.876Z,4.9
2019-04-14T22:11:01.669Z,4.8
2019-04-14T22:16:03.767Z,4.8
2019-04-14T22:21:06.334Z,4.9
2019-04-14T22:26:08.719Z,4.9
2019-04-14T22:31:11.166Z,4.9
2019-04-14T22:36:13.684Z,4.8
2019-04-14T22:41:16.437Z,4.8
2019-04-14T22:46:18.567Z,4.8
2019-04-14T22:51:21.189Z,4.8
2019-04-14T22:56:23.520Z,4.7
2019-04-14T23:01:25.916Z,4.8
2019-04-14T23:06:28.607Z,4.7
2019-04-14T23:11:31.326Z,4.7
2019-04-14T23:16:33.324Z,4.7
2019-04-14T23:21:35.896Z,4.6
2019-04-14T23:26:51.349Z,4.6
2019-04-14T23:31:40.821Z,4.6
2019-04-14T23:36:43.254Z,4.6
2019-04-14T23:41:45.985Z,4.6
2019-04-14T23:46:48.132Z,4.6
2019-04-14T23:51:50.631Z,4.6
2019-04-14T23:57:04.630Z,4.6
